Aviation Digital Data Service (ADDS)

Output produced by METARs form (0257 UTC 21 April 2015)
found at http://aviationweather.gov/adds/metars/
 
KBFD 202328Z 2100/2124 VRB06KT 6SM -RA BR FEW016 BKN035 OVC045 
     FM210200 25009KT P6SM BKN012 OVC030 
     FM210600 27010G16KT P6SM BKN006 OVC012